Curdsville, Kentucky
Current Conditions -  °F | °C
As of 10:56 PM on Monday 20 Oct 2014 (Local Time) from KOWB Reporting Station
Clear Clear  
Wind Chill: 56°   Ceiling: Unl
Heat Index: 56°   Visibility: 10mi
Dew Point: 47°   Wind: 3mph
Humidity: 72%   Direction: 280°W
Pressure: 29.99"   Gusts: NA
Location:  37.73°N, 87.33°W
Report Text: KOWB 210356Z AUTO 28003KT 10SM CLR 13/08 A2999 RMK AO2 TSNO T01330083 SLP155
Loading
Personal Weather Stations






























Interactive Weather Map
Tropical Storm Tracking
New forecast layout! Learn more

10-Day Weather Forecast

Advertisements
Track Severe Weather on mobile